Hlavní strana
METAR-TAF:

METAR-TAF

Letiště :

Lusaka, Zambie

zeměpisná šířka: 15-19-51S, zeměpisná délka: 028-27-09E, výška: 1152 m

Aktuální stav počasí

Zpráva byla vytvořena před 15 hodinami a 50 minutami, v 19:00 UTC
Východojihovýchodní vítr 4 kt
Teplota 13°C
Vlhkost vzduchu 62%
Tlak 1029 hPa
Viditelnost 10 km a více
Žádná oblačnost pod 1500 m, nevyskytují se cumulonimby.

METAR: FLKK 211900Z 11004KT CAVOK 13/06 Q1029

Čas: 12:50 (10:50 UTC)

Předpověď počasí

Zpráva byla vytvořena před 6 hodinami a 50 minutami, v 04:00 UTC
Předpověď platná od 22 v 06 UTC do 23 v 12 UTC
Východní vítr 10 kt
Viditelnost 10 km a více
Oblačno až skoro zataženo ve výšce 2000 ft
Změna
od 22 v 10 UTC do 22 v 14 UTC
Východní vítr 10 kt
Viditelnost 10 km a více
Polojasno ve výšce 3000 ft
Od 22 v 1500 UTC
Východní vítr 9 kt
Viditelnost 10 km a více
Žádná oblačnost pod 1500 m, nevyskytují se cumulonimby.

TAF: FLKK 220400Z 2206/2312 09010KT 9999 BKN020 BECMG 2210/2214 10010KT 9999 SCT030 FM221500 10009KT CAVOK

Stav a předpovědi počasí z více než 4 000 letišť (zprávy METAR a TAF).

Červené a žluté tečky na mapě představují dostupné meteorologické stanice.

Když kurzor umístíte na tečku, zobrazí se název stanice.

Pak kliknutím zobrazíte stav a předpověď počasí.

Chcete-li změnit mapu, kliknutím na zelené tlačítko se znaménkem +mapu přiblížíte, kliknutím na zelené tlačítko se znaménkem – mapu oddálíte a kliknutím na zelené šipky přejdete na sousední mapy.


METAR-TAF: